sensor_id;sensor_type;location;lat;lon;timestamp;P1;durP1;ratioP1;P2;durP2;ratioP2
8958;SDS011;4514;49.476;8.484;2023-10-13T00:01:13;16.02;;;10.70;;
8958;SDS011;4514;49.476;8.484;2023-10-13T00:03:59;16.08;;;10.45;;
8958;SDS011;4514;49.476;8.484;2023-10-13T00:06:54;15.85;;;10.82;;
8958;SDS011;4514;49.476;8.484;2023-10-13T00:09:44;13.80;;;11.23;;
8958;SDS011;4514;49.476;8.484;2023-10-13T00:12:30;14.55;;;9.95;;
8958;SDS011;4514;49.476;8.484;2023-10-13T00:15:17;13.32;;;9.70;;
8958;SDS011;4514;49.476;8.484;2023-10-13T00:18:03;11.98;;;8.68;;
8958;SDS011;4514;49.476;8.484;2023-10-13T00:21:00;13.93;;;9.52;;
8958;SDS011;4514;49.476;8.484;2023-10-13T00:23:57;13.13;;;10.10;;
8958;SDS011;4514;49.476;8.484;2023-10-13T00:26:46;16.25;;;8.93;;
8958;SDS011;4514;49.476;8.484;2023-10-13T00:29:32;14.52;;;8.95;;
8958;SDS011;4514;49.476;8.484;2023-10-13T00:32:22;15.27;;;9.68;;
8958;SDS011;4514;49.476;8.484;2023-10-13T00:35:12;14.38;;;9.35;;
8958;SDS011;4514;49.476;8.484;2023-10-13T00:38:09;13.40;;;9.38;;
8958;SDS011;4514;49.476;8.484;2023-10-13T00:41:00;13.38;;;8.93;;
8958;SDS011;4514;49.476;8.484;2023-10-13T00:44:02;14.75;;;8.70;;
8958;SDS011;4514;49.476;8.484;2023-10-13T00:46:55;13.85;;;8.82;;
8958;SDS011;4514;49.476;8.484;2023-10-13T00:49:43;12.73;;;8.98;;
8958;SDS011;4514;49.476;8.484;2023-10-13T00:52:32;13.20;;;8.32;;
8958;SDS011;4514;49.476;8.484;2023-10-13T00:55:20;12.02;;;9.35;;
8958;SDS011;4514;49.476;8.484;2023-10-13T00:58:12;14.15;;;8.93;;
8958;SDS011;4514;49.476;8.484;2023-10-13T01:01:03;13.50;;;8.65;;
8958;SDS011;4514;49.476;8.484;2023-10-13T01:04:06;16.52;;;9.27;;
8958;SDS011;4514;49.476;8.484;2023-10-13T01:06:53;13.85;;;9.10;;
8958;SDS011;4514;49.476;8.484;2023-10-13T01:09:42;16.52;;;8.68;;
8958;SDS011;4514;49.476;8.484;2023-10-13T01:12:28;12.68;;;8.00;;
8958;SDS011;4514;49.476;8.484;2023-10-13T01:15:14;13.88;;;8.80;;
8958;SDS011;4514;49.476;8.484;2023-10-13T01:18:06;14.85;;;10.98;;
8958;SDS011;4514;49.476;8.484;2023-10-13T01:20:56;13.10;;;8.45;;
8958;SDS011;4514;49.476;8.484;2023-10-13T01:23:44;11.38;;;8.32;;
8958;SDS011;4514;49.476;8.484;2023-10-13T01:26:34;10.85;;;8.68;;
8958;SDS011;4514;49.476;8.484;2023-10-13T01:29:25;9.30;;;8.35;;
8958;SDS011;4514;49.476;8.484;2023-10-13T01:32:23;9.75;;;8.40;;
8958;SDS011;4514;49.476;8.484;2023-10-13T01:35:09;12.80;;;8.50;;
8958;SDS011;4514;49.476;8.484;2023-10-13T01:37:55;11.68;;;8.20;;
8958;SDS011;4514;49.476;8.484;2023-10-13T01:40:41;16.02;;;8.43;;
8958;SDS011;4514;49.476;8.484;2023-10-13T01:43:28;13.45;;;8.35;;
8958;SDS011;4514;49.476;8.484;2023-10-13T01:46:14;11.38;;;8.27;;
8958;SDS011;4514;49.476;8.484;2023-10-13T01:49:07;13.18;;;8.63;;
8958;SDS011;4514;49.476;8.484;2023-10-13T01:51:53;10.43;;;8.10;;
8958;SDS011;4514;49.476;8.484;2023-10-13T01:54:39;12.32;;;8.38;;
8958;SDS011;4514;49.476;8.484;2023-10-13T01:57:26;11.13;;;8.10;;
8958;SDS011;4514;49.476;8.484;2023-10-13T02:00:13;11.05;;;7.82;;
8958;SDS011;4514;49.476;8.484;2023-10-13T02:03:04;11.57;;;7.93;;
8958;SDS011;4514;49.476;8.484;2023-10-13T02:05:52;10.95;;;7.53;;
8958;SDS011;4514;49.476;8.484;2023-10-13T02:08:44;10.27;;;7.85;;
8958;SDS011;4514;49.476;8.484;2023-10-13T02:11:32;14.82;;;8.20;;
8958;SDS011;4514;49.476;8.484;2023-10-13T02:14:18;14.82;;;9.32;;
8958;SDS011;4514;49.476;8.484;2023-10-13T02:17:07;12.00;;;8.30;;
8958;SDS011;4514;49.476;8.484;2023-10-13T02:20:01;11.75;;;8.20;;
8958;SDS011;4514;49.476;8.484;2023-10-13T02:22:53;12.07;;;8.23;;
8958;SDS011;4514;49.476;8.484;2023-10-13T02:25:39;12.98;;;8.10;;
8958;SDS011;4514;49.476;8.484;2023-10-13T02:28:31;13.05;;;8.30;;
8958;SDS011;4514;49.476;8.484;2023-10-13T02:31:20;13.30;;;8.15;;
8958;SDS011;4514;49.476;8.484;2023-10-13T02:34:09;11.38;;;7.63;;
8958;SDS011;4514;49.476;8.484;2023-10-13T02:36:58;11.02;;;7.82;;
8958;SDS011;4514;49.476;8.484;2023-10-13T02:39:47;16.02;;;8.35;;
8958;SDS011;4514;49.476;8.484;2023-10-13T02:42:33;12.85;;;8.48;;
8958;SDS011;4514;49.476;8.484;2023-10-13T02:45:19;12.40;;;8.23;;
8958;SDS011;4514;49.476;8.484;2023-10-13T02:48:11;11.25;;;8.38;;
8958;SDS011;4514;49.476;8.484;2023-10-13T02:51:02;12.05;;;8.15;;
8958;SDS011;4514;49.476;8.484;2023-10-13T02:53:58;11.48;;;8.50;;
8958;SDS011;4514;49.476;8.484;2023-10-13T02:56:48;16.05;;;8.95;;
8958;SDS011;4514;49.476;8.484;2023-10-13T02:59:42;10.82;;;8.68;;
8958;SDS011;4514;49.476;8.484;2023-10-13T03:02:41;11.70;;;7.82;;
8958;SDS011;4514;49.476;8.484;2023-10-13T03:05:36;10.00;;;7.97;;
8958;SDS011;4514;49.476;8.484;2023-10-13T03:08:24;12.27;;;8.25;;
8958;SDS011;4514;49.476;8.484;2023-10-13T03:11:12;11.77;;;8.32;;
8958;SDS011;4514;49.476;8.484;2023-10-13T03:13:59;11.35;;;8.18;;
8958;SDS011;4514;49.476;8.484;2023-10-13T03:16:47;13.30;;;8.07;;
8958;SDS011;4514;49.476;8.484;2023-10-13T03:19:33;13.27;;;8.65;;
8958;SDS011;4514;49.476;8.484;2023-10-13T03:22:22;10.80;;;7.70;;
8958;SDS011;4514;49.476;8.484;2023-10-13T03:25:17;9.95;;;7.78;;
8958;SDS011;4514;49.476;8.484;2023-10-13T03:28:14;12.93;;;7.85;;
8958;SDS011;4514;49.476;8.484;2023-10-13T03:31:06;10.70;;;7.43;;
8958;SDS011;4514;49.476;8.484;2023-10-13T03:33:52;10.38;;;7.97;;
8958;SDS011;4514;49.476;8.484;2023-10-13T03:36:44;8.45;;;7.57;;
8958;SDS011;4514;49.476;8.484;2023-10-13T03:39:42;11.07;;;7.63;;
8958;SDS011;4514;49.476;8.484;2023-10-13T03:42:30;11.50;;;8.18;;
8958;SDS011;4514;49.476;8.484;2023-10-13T03:45:17;11.15;;;7.47;;
8958;SDS011;4514;49.476;8.484;2023-10-13T03:48:04;9.93;;;7.20;;
8958;SDS011;4514;49.476;8.484;2023-10-13T03:51:00;15.48;;;8.45;;
8958;SDS011;4514;49.476;8.484;2023-10-13T03:53:48;11.00;;;7.57;;
8958;SDS011;4514;49.476;8.484;2023-10-13T03:56:43;12.77;;;7.72;;
8958;SDS011;4514;49.476;8.484;2023-10-13T03:59:37;11.05;;;6.85;;
8958;SDS011;4514;49.476;8.484;2023-10-13T04:02:24;12.55;;;7.07;;
8958;SDS011;4514;49.476;8.484;2023-10-13T04:05:13;11.23;;;7.45;;
8958;SDS011;4514;49.476;8.484;2023-10-13T04:08:15;8.63;;;6.45;;
8958;SDS011;4514;49.476;8.484;2023-10-13T04:11:13;16.73;;;7.43;;
8958;SDS011;4514;49.476;8.484;2023-10-13T04:14:24;10.60;;;7.07;;
8958;SDS011;4514;49.476;8.484;2023-10-13T04:17:30;9.98;;;6.50;;
8958;SDS011;4514;49.476;8.484;2023-10-13T04:20:29;9.85;;;6.43;;
8958;SDS011;4514;49.476;8.484;2023-10-13T04:23:23;10.82;;;7.10;;
8958;SDS011;4514;49.476;8.484;2023-10-13T04:26:11;9.02;;;6.90;;
8958;SDS011;4514;49.476;8.484;2023-10-13T04:29:06;10.73;;;7.60;;
8958;SDS011;4514;49.476;8.484;2023-10-13T04:32:12;12.48;;;8.75;;
8958;SDS011;4514;49.476;8.484;2023-10-13T04:35:01;13.82;;;10.52;;
8958;SDS011;4514;49.476;8.484;2023-10-13T04:38:03;14.68;;;11.32;;
8958;SDS011;4514;49.476;8.484;2023-10-13T04:41:03;11.93;;;10.65;;
8958;SDS011;4514;49.476;8.484;2023-10-13T04:43:55;12.25;;;10.93;;
8958;SDS011;4514;49.476;8.484;2023-10-13T04:46:50;12.85;;;10.27;;
8958;SDS011;4514;49.476;8.484;2023-10-13T04:49:38;16.20;;;9.93;;
8958;SDS011;4514;49.476;8.484;2023-10-13T04:52:27;13.35;;;9.75;;
8958;SDS011;4514;49.476;8.484;2023-10-13T04:55:48;13.40;;;9.93;;
8958;SDS011;4514;49.476;8.484;2023-10-13T04:58:52;13.60;;;9.45;;
8958;SDS011;4514;49.476;8.484;2023-10-13T05:02:12;15.55;;;8.35;;
8958;SDS011;4514;49.476;8.484;2023-10-13T05:05:24;14.25;;;8.40;;
8958;SDS011;4514;49.476;8.484;2023-10-13T05:08:30;12.82;;;8.88;;
8958;SDS011;4514;49.476;8.484;2023-10-13T05:11:35;14.20;;;9.02;;
8958;SDS011;4514;49.476;8.484;2023-10-13T05:14:39;12.90;;;9.00;;
8958;SDS011;4514;49.476;8.484;2023-10-13T05:17:43;13.80;;;9.23;;
8958;SDS011;4514;49.476;8.484;2023-10-13T05:20:48;14.02;;;9.77;;
8958;SDS011;4514;49.476;8.484;2023-10-13T05:23:54;13.98;;;9.60;;
8958;SDS011;4514;49.476;8.484;2023-10-13T05:26:59;11.60;;;9.30;;
8958;SDS011;4514;49.476;8.484;2023-10-13T05:30:05;16.63;;;9.40;;
8958;SDS011;4514;49.476;8.484;2023-10-13T05:33:10;12.25;;;9.23;;
8958;SDS011;4514;49.476;8.484;2023-10-13T05:36:14;14.52;;;9.07;;
8958;SDS011;4514;49.476;8.484;2023-10-13T05:39:18;16.02;;;8.93;;
8958;SDS011;4514;49.476;8.484;2023-10-13T05:42:22;13.00;;;8.35;;
8958;SDS011;4514;49.476;8.484;2023-10-13T05:45:26;10.80;;;7.47;;
8958;SDS011;4514;49.476;8.484;2023-10-13T05:48:36;9.57;;;7.50;;
8958;SDS011;4514;49.476;8.484;2023-10-13T05:51:40;11.30;;;7.22;;
8958;SDS011;4514;49.476;8.484;2023-10-13T05:54:38;12.32;;;7.07;;
8958;SDS011;4514;49.476;8.484;2023-10-13T05:57:42;10.65;;;7.00;;
8958;SDS011;4514;49.476;8.484;2023-10-13T06:00:47;12.05;;;6.55;;
8958;SDS011;4514;49.476;8.484;2023-10-13T06:03:51;11.88;;;6.57;;
8958;SDS011;4514;49.476;8.484;2023-10-13T06:06:55;8.05;;;5.78;;
8958;SDS011;4514;49.476;8.484;2023-10-13T06:09:59;9.27;;;6.25;;
8958;SDS011;4514;49.476;8.484;2023-10-13T06:13:04;10.00;;;5.75;;
8958;SDS011;4514;49.476;8.484;2023-10-13T06:16:09;11.05;;;5.80;;
8958;SDS011;4514;49.476;8.484;2023-10-13T06:19:14;7.68;;;5.53;;
8958;SDS011;4514;49.476;8.484;2023-10-13T06:22:18;8.50;;;5.97;;
8958;SDS011;4514;49.476;8.484;2023-10-13T06:25:22;10.48;;;5.93;;
8958;SDS011;4514;49.476;8.484;2023-10-13T06:28:27;8.90;;;5.90;;
8958;SDS011;4514;49.476;8.484;2023-10-13T06:31:27;10.18;;;5.82;;
8958;SDS011;4514;49.476;8.484;2023-10-13T06:34:19;10.18;;;5.90;;
8958;SDS011;4514;49.476;8.484;2023-10-13T06:37:23;10.23;;;5.40;;
8958;SDS011;4514;49.476;8.484;2023-10-13T06:40:10;10.98;;;6.32;;
8958;SDS011;4514;49.476;8.484;2023-10-13T06:43:16;10.65;;;5.97;;
8958;SDS011;4514;49.476;8.484;2023-10-13T06:46:02;16.40;;;5.90;;
8958;SDS011;4514;49.476;8.484;2023-10-13T06:48:49;13.18;;;7.68;;
8958;SDS011;4514;49.476;8.484;2023-10-13T06:51:39;8.68;;;5.57;;
8958;SDS011;4514;49.476;8.484;2023-10-13T06:54:24;10.80;;;6.13;;
8958;SDS011;4514;49.476;8.484;2023-10-13T06:57:10;8.65;;;5.97;;
8958;SDS011;4514;49.476;8.484;2023-10-13T06:59:59;10.45;;;6.18;;
8958;SDS011;4514;49.476;8.484;2023-10-13T07:02:53;13.90;;;5.90;;
8958;SDS011;4514;49.476;8.484;2023-10-13T07:05:39;13.25;;;5.38;;
8958;SDS011;4514;49.476;8.484;2023-10-13T07:08:26;8.45;;;5.63;;
8958;SDS011;4514;49.476;8.484;2023-10-13T07:11:12;10.25;;;5.57;;
8958;SDS011;4514;49.476;8.484;2023-10-13T07:14:08;8.68;;;5.60;;
8958;SDS011;4514;49.476;8.484;2023-10-13T07:16:57;13.02;;;5.80;;
8958;SDS011;4514;49.476;8.484;2023-10-13T07:19:45;9.65;;;5.30;;
8958;SDS011;4514;49.476;8.484;2023-10-13T07:22:38;7.65;;;5.25;;
8958;SDS011;4514;49.476;8.484;2023-10-13T07:25:25;9.10;;;5.68;;
8958;SDS011;4514;49.476;8.484;2023-10-13T07:28:17;7.55;;;5.15;;
8958;SDS011;4514;49.476;8.484;2023-10-13T07:31:03;8.27;;;5.10;;
8958;SDS011;4514;49.476;8.484;2023-10-13T07:33:49;9.02;;;5.40;;
8958;SDS011;4514;49.476;8.484;2023-10-13T07:36:35;9.23;;;5.55;;
8958;SDS011;4514;49.476;8.484;2023-10-13T07:39:25;8.43;;;5.47;;
8958;SDS011;4514;49.476;8.484;2023-10-13T07:42:16;10.30;;;5.45;;
8958;SDS011;4514;49.476;8.484;2023-10-13T07:45:06;10.07;;;6.00;;
8958;SDS011;4514;49.476;8.484;2023-10-13T07:47:53;6.57;;;5.18;;
8958;SDS011;4514;49.476;8.484;2023-10-13T07:50:39;11.80;;;5.28;;
8958;SDS011;4514;49.476;8.484;2023-10-13T07:53:30;8.48;;;5.18;;
8958;SDS011;4514;49.476;8.484;2023-10-13T07:56:25;8.80;;;5.18;;
8958;SDS011;4514;49.476;8.484;2023-10-13T07:59:15;9.23;;;5.55;;
8958;SDS011;4514;49.476;8.484;2023-10-13T08:02:07;8.73;;;5.32;;
8958;SDS011;4514;49.476;8.484;2023-10-13T08:05:00;7.50;;;4.93;;
8958;SDS011;4514;49.476;8.484;2023-10-13T08:07:46;8.63;;;4.68;;
8958;SDS011;4514;49.476;8.484;2023-10-13T08:10:35;7.75;;;4.80;;
8958;SDS011;4514;49.476;8.484;2023-10-13T08:13:22;10.38;;;4.72;;
8958;SDS011;4514;49.476;8.484;2023-10-13T08:16:08;9.55;;;4.82;;
8958;SDS011;4514;49.476;8.484;2023-10-13T08:18:57;7.45;;;5.03;;
8958;SDS011;4514;49.476;8.484;2023-10-13T08:21:49;7.82;;;5.18;;
8958;SDS011;4514;49.476;8.484;2023-10-13T08:24:37;12.18;;;4.68;;
8958;SDS011;4514;49.476;8.484;2023-10-13T08:27:25;7.63;;;5.13;;
8958;SDS011;4514;49.476;8.484;2023-10-13T08:30:20;9.07;;;5.18;;
8958;SDS011;4514;49.476;8.484;2023-10-13T08:33:11;6.22;;;5.13;;
8958;SDS011;4514;49.476;8.484;2023-10-13T08:36:03;6.88;;;4.80;;
8958;SDS011;4514;49.476;8.484;2023-10-13T08:39:11;7.47;;;4.57;;
8958;SDS011;4514;49.476;8.484;2023-10-13T08:42:15;10.07;;;4.63;;
8958;SDS011;4514;49.476;8.484;2023-10-13T08:45:03;8.05;;;5.30;;
8958;SDS011;4514;49.476;8.484;2023-10-13T08:48:06;11.40;;;5.30;;
8958;SDS011;4514;49.476;8.484;2023-10-13T08:51:02;8.77;;;4.80;;
8958;SDS011;4514;49.476;8.484;2023-10-13T08:53:55;9.43;;;5.40;;
8958;SDS011;4514;49.476;8.484;2023-10-13T08:56:46;13.68;;;11.10;;
8958;SDS011;4514;49.476;8.484;2023-10-13T08:59:39;5.45;;;4.57;;
8958;SDS011;4514;49.476;8.484;2023-10-13T09:02:38;9.38;;;7.75;;
8958;SDS011;4514;49.476;8.484;2023-10-13T09:05:44;8.38;;;4.90;;
8958;SDS011;4514;49.476;8.484;2023-10-13T09:08:47;9.38;;;5.25;;
8958;SDS011;4514;49.476;8.484;2023-10-13T09:11:58;8.13;;;4.78;;
8958;SDS011;4514;49.476;8.484;2023-10-13T09:14:58;8.57;;;5.13;;
8958;SDS011;4514;49.476;8.484;2023-10-13T09:17:52;8.20;;;4.70;;
8958;SDS011;4514;49.476;8.484;2023-10-13T09:20:39;8.70;;;4.72;;
8958;SDS011;4514;49.476;8.484;2023-10-13T09:23:25;6.93;;;4.85;;
8958;SDS011;4514;49.476;8.484;2023-10-13T09:26:11;9.82;;;7.03;;
8958;SDS011;4514;49.476;8.484;2023-10-13T09:28:59;30.80;;;27.42;;
8958;SDS011;4514;49.476;8.484;2023-10-13T09:31:46;10.77;;;5.60;;
8958;SDS011;4514;49.476;8.484;2023-10-13T09:34:36;9.38;;;5.65;;
8958;SDS011;4514;49.476;8.484;2023-10-13T09:37:25;8.48;;;4.40;;
8958;SDS011;4514;49.476;8.484;2023-10-13T09:40:16;7.72;;;4.40;;
8958;SDS011;4514;49.476;8.484;2023-10-13T09:43:14;9.48;;;4.55;;
8958;SDS011;4514;49.476;8.484;2023-10-13T09:46:04;12.05;;;4.40;;
8958;SDS011;4514;49.476;8.484;2023-10-13T09:48:54;9.27;;;4.53;;
8958;SDS011;4514;49.476;8.484;2023-10-13T09:52:03;10.98;;;5.75;;
8958;SDS011;4514;49.476;8.484;2023-10-13T09:57:51;6.85;;;4.95;;
8958;SDS011;4514;49.476;8.484;2023-10-13T10:03:32;9.15;;;4.90;;
8958;SDS011;4514;49.476;8.484;2023-10-13T10:06:21;6.88;;;4.38;;
8958;SDS011;4514;49.476;8.484;2023-10-13T10:09:13;7.70;;;4.55;;
8958;SDS011;4514;49.476;8.484;2023-10-13T10:15:22;9.32;;;4.22;;
8958;SDS011;4514;49.476;8.484;2023-10-13T10:18:32;7.85;;;4.25;;
8958;SDS011;4514;49.476;8.484;2023-10-13T10:21:21;8.98;;;4.35;;
8958;SDS011;4514;49.476;8.484;2023-10-13T10:24:16;7.68;;;4.32;;
8958;SDS011;4514;49.476;8.484;2023-10-13T10:27:23;8.55;;;4.25;;
8958;SDS011;4514;49.476;8.484;2023-10-13T10:30:10;6.60;;;4.22;;
8958;SDS011;4514;49.476;8.484;2023-10-13T10:32:58;6.75;;;4.13;;
8958;SDS011;4514;49.476;8.484;2023-10-13T10:36:00;10.73;;;5.95;;
8958;SDS011;4514;49.476;8.484;2023-10-13T10:38:52;7.72;;;4.72;;
8958;SDS011;4514;49.476;8.484;2023-10-13T10:41:40;7.13;;;4.78;;
8958;SDS011;4514;49.476;8.484;2023-10-13T10:44:29;9.98;;;4.45;;
8958;SDS011;4514;49.476;8.484;2023-10-13T10:47:21;9.30;;;4.65;;
8958;SDS011;4514;49.476;8.484;2023-10-13T10:50:24;10.95;;;4.55;;
8958;SDS011;4514;49.476;8.484;2023-10-13T10:53:17;7.57;;;4.82;;
8958;SDS011;4514;49.476;8.484;2023-10-13T10:56:06;9.05;;;4.63;;
8958;SDS011;4514;49.476;8.484;2023-10-13T10:59:05;8.98;;;5.20;;
8958;SDS011;4514;49.476;8.484;2023-10-13T11:02:03;10.60;;;4.75;;
8958;SDS011;4514;49.476;8.484;2023-10-13T11:04:52;11.90;;;4.97;;
8958;SDS011;4514;49.476;8.484;2023-10-13T11:07:44;9.48;;;4.60;;
8958;SDS011;4514;49.476;8.484;2023-10-13T11:10:35;8.70;;;4.22;;
8958;SDS011;4514;49.476;8.484;2023-10-13T11:13:24;6.65;;;4.28;;
8958;SDS011;4514;49.476;8.484;2023-10-13T11:16:22;9.70;;;4.68;;
8958;SDS011;4514;49.476;8.484;2023-10-13T11:19:12;9.00;;;4.80;;
8958;SDS011;4514;49.476;8.484;2023-10-13T11:21:58;8.77;;;4.68;;
8958;SDS011;4514;49.476;8.484;2023-10-13T11:24:48;10.15;;;4.53;;
8958;SDS011;4514;49.476;8.484;2023-10-13T11:27:33;11.40;;;4.65;;
8958;SDS011;4514;49.476;8.484;2023-10-13T11:30:29;9.85;;;4.18;;
8958;SDS011;4514;49.476;8.484;2023-10-13T11:33:26;7.75;;;4.55;;
8958;SDS011;4514;49.476;8.484;2023-10-13T11:36:16;10.38;;;4.72;;
8958;SDS011;4514;49.476;8.484;2023-10-13T11:39:08;10.63;;;4.85;;
8958;SDS011;4514;49.476;8.484;2023-10-13T11:41:54;9.63;;;4.60;;
8958;SDS011;4514;49.476;8.484;2023-10-13T11:44:40;6.90;;;4.78;;
8958;SDS011;4514;49.476;8.484;2023-10-13T11:47:28;7.50;;;4.75;;
8958;SDS011;4514;49.476;8.484;2023-10-13T11:50:32;10.13;;;5.30;;
8958;SDS011;4514;49.476;8.484;2023-10-13T11:53:19;9.57;;;4.90;;
8958;SDS011;4514;49.476;8.484;2023-10-13T11:56:05;8.98;;;4.70;;
8958;SDS011;4514;49.476;8.484;2023-10-13T11:58:56;7.75;;;5.00;;
8958;SDS011;4514;49.476;8.484;2023-10-13T12:01:47;7.78;;;4.25;;
8958;SDS011;4514;49.476;8.484;2023-10-13T12:04:52;8.90;;;5.00;;
8958;SDS011;4514;49.476;8.484;2023-10-13T12:07:39;6.53;;;4.65;;
8958;SDS011;4514;49.476;8.484;2023-10-13T12:10:30;8.00;;;4.82;;
8958;SDS011;4514;49.476;8.484;2023-10-13T12:13:19;9.82;;;4.65;;
8958;SDS011;4514;49.476;8.484;2023-10-13T12:16:04;7.28;;;4.78;;
8958;SDS011;4514;49.476;8.484;2023-10-13T12:18:54;6.72;;;4.50;;
8958;SDS011;4514;49.476;8.484;2023-10-13T12:21:40;7.32;;;4.80;;
8958;SDS011;4514;49.476;8.484;2023-10-13T12:24:28;8.07;;;4.47;;
8958;SDS011;4514;49.476;8.484;2023-10-13T12:27:20;7.80;;;5.18;;
8958;SDS011;4514;49.476;8.484;2023-10-13T12:30:06;8.95;;;5.00;;
8958;SDS011;4514;49.476;8.484;2023-10-13T12:32:58;8.95;;;5.43;;
8958;SDS011;4514;49.476;8.484;2023-10-13T12:35:57;10.35;;;4.95;;
8958;SDS011;4514;49.476;8.484;2023-10-13T12:38:54;8.60;;;4.70;;
8958;SDS011;4514;49.476;8.484;2023-10-13T12:41:52;7.93;;;5.13;;
8958;SDS011;4514;49.476;8.484;2023-10-13T12:44:56;9.43;;;5.10;;
8958;SDS011;4514;49.476;8.484;2023-10-13T12:48:01;9.27;;;4.85;;
8958;SDS011;4514;49.476;8.484;2023-10-13T12:51:05;7.93;;;4.57;;
8958;SDS011;4514;49.476;8.484;2023-10-13T12:54:06;8.55;;;4.68;;
8958;SDS011;4514;49.476;8.484;2023-10-13T12:57:11;6.50;;;5.13;;
8958;SDS011;4514;49.476;8.484;2023-10-13T12:59:56;6.53;;;4.57;;
8958;SDS011;4514;49.476;8.484;2023-10-13T13:02:42;8.40;;;5.13;;
8958;SDS011;4514;49.476;8.484;2023-10-13T13:05:28;7.35;;;4.90;;
8958;SDS011;4514;49.476;8.484;2023-10-13T13:08:14;7.97;;;4.75;;
8958;SDS011;4514;49.476;8.484;2023-10-13T13:11:07;10.20;;;5.40;;
8958;SDS011;4514;49.476;8.484;2023-10-13T13:13:52;9.85;;;5.13;;
8958;SDS011;4514;49.476;8.484;2023-10-13T13:16:41;6.20;;;4.93;;
8958;SDS011;4514;49.476;8.484;2023-10-13T13:19:27;7.70;;;5.13;;
8958;SDS011;4514;49.476;8.484;2023-10-13T13:22:13;12.13;;;4.78;;
8958;SDS011;4514;49.476;8.484;2023-10-13T13:24:58;8.35;;;4.68;;
8958;SDS011;4514;49.476;8.484;2023-10-13T13:27:46;7.38;;;4.75;;
8958;SDS011;4514;49.476;8.484;2023-10-13T13:30:32;7.03;;;4.85;;
8958;SDS011;4514;49.476;8.484;2023-10-13T13:33:20;7.00;;;4.68;;
8958;SDS011;4514;49.476;8.484;2023-10-13T13:36:11;7.20;;;4.90;;
8958;SDS011;4514;49.476;8.484;2023-10-13T13:39:03;9.75;;;5.05;;
8958;SDS011;4514;49.476;8.484;2023-10-13T13:41:49;6.72;;;4.25;;
8958;SDS011;4514;49.476;8.484;2023-10-13T13:44:42;7.05;;;4.90;;
8958;SDS011;4514;49.476;8.484;2023-10-13T13:47:31;11.52;;;4.90;;
8958;SDS011;4514;49.476;8.484;2023-10-13T13:50:22;10.07;;;4.28;;
8958;SDS011;4514;49.476;8.484;2023-10-13T13:53:17;9.80;;;4.95;;
8958;SDS011;4514;49.476;8.484;2023-10-13T13:56:12;6.78;;;4.82;;
8958;SDS011;4514;49.476;8.484;2023-10-13T13:59:03;8.23;;;5.13;;
8958;SDS011;4514;49.476;8.484;2023-10-13T14:01:53;9.60;;;5.32;;
8958;SDS011;4514;49.476;8.484;2023-10-13T14:04:47;7.70;;;5.43;;
8958;SDS011;4514;49.476;8.484;2023-10-13T14:07:35;6.53;;;4.82;;
8958;SDS011;4514;49.476;8.484;2023-10-13T14:10:21;8.43;;;5.10;;
8958;SDS011;4514;49.476;8.484;2023-10-13T14:13:18;7.22;;;4.65;;
8958;SDS011;4514;49.476;8.484;2023-10-13T14:16:07;11.30;;;4.72;;
8958;SDS011;4514;49.476;8.484;2023-10-13T14:19:01;8.85;;;4.30;;
8958;SDS011;4514;49.476;8.484;2023-10-13T14:21:47;9.48;;;4.55;;
8958;SDS011;4514;49.476;8.484;2023-10-13T14:24:38;10.00;;;4.70;;
8958;SDS011;4514;49.476;8.484;2023-10-13T14:27:32;10.10;;;4.80;;
8958;SDS011;4514;49.476;8.484;2023-10-13T14:30:19;8.57;;;4.75;;
8958;SDS011;4514;49.476;8.484;2023-10-13T14:33:05;9.65;;;4.60;;
8958;SDS011;4514;49.476;8.484;2023-10-13T14:35:56;8.82;;;5.25;;
8958;SDS011;4514;49.476;8.484;2023-10-13T14:38:41;11.57;;;4.35;;
8958;SDS011;4514;49.476;8.484;2023-10-13T14:41:29;7.38;;;4.40;;
8958;SDS011;4514;49.476;8.484;2023-10-13T14:44:16;7.32;;;4.05;;
8958;SDS011;4514;49.476;8.484;2023-10-13T14:47:02;7.10;;;4.15;;
8958;SDS011;4514;49.476;8.484;2023-10-13T14:49:47;7.55;;;4.40;;
8958;SDS011;4514;49.476;8.484;2023-10-13T14:52:33;7.82;;;4.35;;
8958;SDS011;4514;49.476;8.484;2023-10-13T14:55:19;8.38;;;4.47;;
8958;SDS011;4514;49.476;8.484;2023-10-13T14:58:05;6.40;;;4.57;;
8958;SDS011;4514;49.476;8.484;2023-10-13T15:00:53;8.82;;;4.65;;
8958;SDS011;4514;49.476;8.484;2023-10-13T15:03:40;8.13;;;4.43;;
8958;SDS011;4514;49.476;8.484;2023-10-13T15:06:26;6.53;;;4.50;;
8958;SDS011;4514;49.476;8.484;2023-10-13T15:09:17;8.50;;;3.90;;
8958;SDS011;4514;49.476;8.484;2023-10-13T15:12:09;7.30;;;4.40;;
8958;SDS011;4514;49.476;8.484;2023-10-13T15:14:55;8.38;;;4.20;;
8958;SDS011;4514;49.476;8.484;2023-10-13T15:17:45;10.93;;;4.90;;
8958;SDS011;4514;49.476;8.484;2023-10-13T15:20:38;9.63;;;4.57;;
8958;SDS011;4514;49.476;8.484;2023-10-13T15:23:29;13.80;;;4.93;;
8958;SDS011;4514;49.476;8.484;2023-10-13T15:26:19;7.82;;;4.10;;
8958;SDS011;4514;49.476;8.484;2023-10-13T15:29:09;13.95;;;4.22;;
8958;SDS011;4514;49.476;8.484;2023-10-13T15:31:57;13.20;;;6.05;;
8958;SDS011;4514;49.476;8.484;2023-10-13T15:34:46;39.08;;;26.27;;
8958;SDS011;4514;49.476;8.484;2023-10-13T15:37:31;11.25;;;6.53;;
8958;SDS011;4514;49.476;8.484;2023-10-13T15:40:17;10.77;;;4.55;;
8958;SDS011;4514;49.476;8.484;2023-10-13T15:43:03;8.23;;;4.60;;
8958;SDS011;4514;49.476;8.484;2023-10-13T15:45:50;11.88;;;4.43;;
8958;SDS011;4514;49.476;8.484;2023-10-13T15:48:37;5.93;;;4.25;;
8958;SDS011;4514;49.476;8.484;2023-10-13T15:51:22;8.55;;;4.50;;
8958;SDS011;4514;49.476;8.484;2023-10-13T15:54:09;9.80;;;4.18;;
8958;SDS011;4514;49.476;8.484;2023-10-13T15:57:06;7.43;;;4.20;;
8958;SDS011;4514;49.476;8.484;2023-10-13T15:59:53;8.07;;;4.40;;
8958;SDS011;4514;49.476;8.484;2023-10-13T16:02:42;10.55;;;4.25;;
8958;SDS011;4514;49.476;8.484;2023-10-13T16:05:29;9.77;;;5.82;;
8958;SDS011;4514;49.476;8.484;2023-10-13T16:08:19;15.75;;;8.60;;
8958;SDS011;4514;49.476;8.484;2023-10-13T16:11:06;34.85;;;24.25;;
8958;SDS011;4514;49.476;8.484;2023-10-13T16:13:53;41.25;;;29.85;;
8958;SDS011;4514;49.476;8.484;2023-10-13T16:16:38;37.72;;;24.13;;
8958;SDS011;4514;49.476;8.484;2023-10-13T16:19:24;14.65;;;11.23;;
8958;SDS011;4514;49.476;8.484;2023-10-13T16:22:12;10.00;;;6.18;;
8958;SDS011;4514;49.476;8.484;2023-10-13T16:24:59;9.40;;;5.22;;
8958;SDS011;4514;49.476;8.484;2023-10-13T16:27:49;14.85;;;7.25;;
8958;SDS011;4514;49.476;8.484;2023-10-13T16:30:35;13.90;;;8.20;;
8958;SDS011;4514;49.476;8.484;2023-10-13T16:33:23;16.60;;;10.50;;
8958;SDS011;4514;49.476;8.484;2023-10-13T16:36:08;8.57;;;5.47;;
8958;SDS011;4514;49.476;8.484;2023-10-13T16:38:55;11.10;;;5.40;;
8958;SDS011;4514;49.476;8.484;2023-10-13T16:41:43;7.15;;;4.68;;
8958;SDS011;4514;49.476;8.484;2023-10-13T16:44:32;10.45;;;4.93;;
8958;SDS011;4514;49.476;8.484;2023-10-13T16:47:18;10.55;;;5.25;;
8958;SDS011;4514;49.476;8.484;2023-10-13T16:50:03;9.73;;;4.35;;
8958;SDS011;4514;49.476;8.484;2023-10-13T16:52:49;9.48;;;5.93;;
8958;SDS011;4514;49.476;8.484;2023-10-13T16:55:35;9.63;;;5.22;;
8958;SDS011;4514;49.476;8.484;2023-10-13T16:58:21;14.30;;;5.90;;
8958;SDS011;4514;49.476;8.484;2023-10-13T17:01:14;8.65;;;5.30;;
8958;SDS011;4514;49.476;8.484;2023-10-13T17:04:00;10.00;;;4.75;;
8958;SDS011;4514;49.476;8.484;2023-10-13T17:06:49;15.32;;;4.57;;
8958;SDS011;4514;49.476;8.484;2023-10-13T17:09:37;12.50;;;4.65;;
8958;SDS011;4514;49.476;8.484;2023-10-13T17:12:23;9.68;;;4.03;;
8958;SDS011;4514;49.476;8.484;2023-10-13T17:15:09;6.93;;;3.80;;
8958;SDS011;4514;49.476;8.484;2023-10-13T17:18:15;9.60;;;3.92;;
8958;SDS011;4514;49.476;8.484;2023-10-13T17:21:01;7.13;;;3.97;;
8958;SDS011;4514;49.476;8.484;2023-10-13T17:23:52;6.93;;;4.35;;
8958;SDS011;4514;49.476;8.484;2023-10-13T17:26:38;7.25;;;3.95;;
8958;SDS011;4514;49.476;8.484;2023-10-13T17:29:23;9.73;;;3.70;;
8958;SDS011;4514;49.476;8.484;2023-10-13T17:32:11;5.82;;;3.90;;
8958;SDS011;4514;49.476;8.484;2023-10-13T17:35:01;7.88;;;3.80;;
8958;SDS011;4514;49.476;8.484;2023-10-13T17:37:48;7.72;;;3.90;;
8958;SDS011;4514;49.476;8.484;2023-10-13T17:40:34;6.22;;;3.88;;
8958;SDS011;4514;49.476;8.484;2023-10-13T17:43:21;6.32;;;4.20;;
8958;SDS011;4514;49.476;8.484;2023-10-13T17:46:10;7.75;;;3.55;;
8958;SDS011;4514;49.476;8.484;2023-10-13T17:48:57;14.10;;;3.90;;